Etusivu
METAR-TAF:

METAR-TAF

Lentoasemat :

Portland-Troutdale Airport

Troutdale, Oregon, Yhdysvallat

Leveyspiiri: 45-33-04N, Pituuspiiri: 122-24-32W, korkeus merenpinnasta: 11 m

Tämänhetkinen sää

Tämä raportti tehtiin 51 minuuttia sitten, kello 00.53 UTC
Tuuli 4 kn kaakosta
Lämpötila 8°C
Kosteus 61%
Ilmanpaine 1026 hPa
Näkyvyys: 16.1 km
selkeää

METAR: KTTD 230053Z 14004KT 10SM CLR 08/01 A3029 RMK AO2 SLP256 T00780011

Aika: 17:44 (01:44 UTC)

Sääennuste

Tämä raportti tehtiin 2 tuntia ja 24 minuuttia sitten, kello 23.20 UTC
Ennuste voimassa 23. päivästä klo 00 UTC - 23. päivään klo 24 UTC
Tuuli 3 kn eri suunnista
Näkyvyys: 10 km
selkeää

TAF: KTTD 222320Z 2300/2324 VRB03KT P6SM SKC

Säähavainnot ja -ennusteet yli 4000 lentoasemalta (METAR- ja TAF-raportit).

Käytössä olevat sääasemat on merkitty karttaan keltaisilla ja punaisilla pisteillä.

Aseta hiiri pisteen päälle nähdäksesi sääaseman nimen.

Klikkaa sitten nähdäksesi säähavainnot ja -ennusteet.

Kartan vaihtaminen: klikkaa mustalla rastilla varustettuja vihreitä pisteitä, niin voit zoomata sisään; viivalla varustettua vihreää pistettä, niin voit zoomata ulos tai vihreitä nuolia, niin pääset viereisille kartoille.


METAR-TAF: